KATW/ATW METAR and TAF weather

Enter ICAO airport designator
Station Type Date Time Source
KATW METAR 2021/09/27 06:55 UTC NOAA

KATW 270655Z AUTO 23005KT 10SM CLR 16/10 A2969 RMK AO2


Station Type Date Time Source
KATW Decoded METAR 2021/09/27 06:55 UTC NOAA

Appleton / Outagamie, WI, United States (KATW) 44-15N 088-31W
Sep 27, 2021 - 02:55 AM EDT / 2021.09.27 0655 UTC
Wind: from the SW (230 degrees) at 6 MPH (5 KT):0
Visibility: 10 mile(s):0
Sky conditions: clear
Temperature: 60 F (16 C)
Dew Point: 50 F (10 C)
Relative Humidity: 67%
Pressure (altimeter): 29.69 in. Hg (1005 hPa)
ob: KATW 270655Z AUTO 23005KT 10SM CLR 16/10 A2969 RMK AO2
cycle: 7

Station Type Date Time Source
KATW TAF 2021/09/27 06:22 UTC NOAA

TAF KATW 270520Z 2706/2806 VRB03KT P6SM SKC
FM271500 04008G15KT P6SM SCT012
TEMPO 2715/2717 BKN012
FM271700 02010G18KT P6SM SCT025
FM272300 05007KT P6SM SKC

Example: see airport list